Tiempo atmosférico en la estación meteorológica de Saelices El Chico, Salamanca (680 m.)



Fecha
DESCASC
Temp. máxima en grados centígrados (hora)
DESCASC
Temp. mínima en grados centígrados (hora)
DESCASC
Temp. media en grados centígrados
DESCASC
Racha de viento máxima en m/sg (hora)
DESCASC
Velocidad máxima media en intervalos de 10 minutos(hora)
DESCASC
Precipitaciones diarias en mm
DESCASC
Precipitaciones de 00:00 a 06:00 en mm
DESCASC
Precipitaciones de 06:00 a 12:00 en mm
DESCASC
Precipitaciones de 12:00 a 18:00 en mm
DESCASC
Precipitaciones de 18:00 a 24:00 en mm
DESCASC
22-08-2019 33.2 (15:50) 14.4 (07:10) 23.8 8.61 (19:10) 5.28 (21:20) 0 0 0 0 0
21-08-2019 31.5 (18:30) 14.9 (07:50) 23.2 16.39 (02:40) 9.72 (01:30) 0 0 0 0 0
20-08-2019 29.1 (17:40) 14.1 (07:50) 21.6 14.17 (23:59) 9.72 (23:59) 0 0 0 0 0
19-08-2019 26.4 (18:20) 13.9 (07:50) 20.1 8.33 (23:59) 4.17 (23:50) 0 0 0 0 0
18-08-2019 30 (16:50) 14.5 (00:00) 22.3 11.94 (18:00) 5.83 (18:40) 0 0 0 0 0
17-08-2019 35.6 (18:00) 12.8 (00:00) 24.2 10.83 (22:30) 5.83 (22:50) 0 0 0 0 0
16-08-2019 34.7 (17:00) 14.9 (00:00) 24.8 10.83 (20:30) 5.83 (20:00) 0 0 0 0 0
15-08-2019 34.6 (17:10) 15.1 (00:00) 24.8 9.17 (20:20) 4.44 (00:10) 0 0 0 0 0
14-08-2019 32.7 (18:30) 10.9 (00:00) 21.8 10 (23:59) 5 (23:50) 0 0 0 0 0
13-08-2019 29.1 (17:00) 12.2 (00:00) 20.7 9.17 (03:40) 5 (06:20) 0 0 0 0 0
12-08-2019 25.2 (17:40) 9.1 (00:00) 17.2 11.67 (14:20) 6.39 (11:10) 0 0 0 0 0
11-08-2019 24.1 (16:50) 12.5 (00:00) 18.3 15.28 (15:10) 5.83 (17:20) 1.4 1.4 0 0 0
10-08-2019 27.4 (17:20) 12.4 (00:00) 19.9 11.11 (21:00) 5 (21:00) 0 0 0 0 0
09-08-2019 25.2 (19:10) 16.5 (00:00) 20.9 10.28 (21:20) 5.28 (05:50) 2 0 1.8 0.2 0
08-08-2019 29.6 (17:00) 19.3 (00:00) 24.4 14.44 (16:40) 7.78 (16:40) 0 0 0 0 0
07-08-2019 27 (18:20) 16.3 (00:00) 21.6 10.28 (20:10) 5.28 (20:10) 0 0 0 0 0
06-08-2019 32.9 (15:40) 13.8 (00:00) 23.4 11.67 (17:10) 6.67 (19:40) 0 0 0 0 0
05-08-2019 33.6 (17:40) 13.3 (00:00) 23.4 9.17 (20:50) 5.28 (20:50) 0 0 0 0 0
04-08-2019 34 (16:10) 14.4 (00:00) 24.2 10.83 (15:10) 5.56 (20:30) 0 0 0 0 0
03-08-2019 34.3 (17:50) 14.1 (00:00) 24.2 11.67 (20:40) 5.83 (20:40) 0 0 0 0 0
02-08-2019 33.9 (18:30) 12.2 (00:00) 23.1 7.78 (23:30) 4.44 (23:40) 0 0 0 0 0
01-08-2019 32.2 (16:30) 12.9 (00:00) 22.6 11.11 (20:30) 6.11 (20:30) 0 0 0 0 0
31-07-2019 30.5 (16:20) 14.3 (00:00) 22.4 10.56 (18:40) 6.39 (19:40) 0 0 0 0 0
30-07-2019 27.3 (17:10) 9.4 (00:00) 18.3 12.22 (16:50) 5.83 (14:50) 0 0 0 0 0
29-07-2019 26 (17:00) 10.5 (00:00) 18.3 11.67 (18:50) 6.39 (18:10) 0 0 0 0 0
28-07-2019 30 (18:00) 13.7 (00:00) 21.8 9.72 (18:50) 5.28 (23:00) 0 0 0 0 0
27-07-2019 26.5 (17:30) 13.4 (00:00) 19.9 12.78 (14:10) 6.94 (14:00) 0 0 0 0 0
26-07-2019 26 (17:40) 12.7 (00:00) 19.3 11.39 (16:30) 6.11 (21:30) 0 0 0 0 0

Gráficas

Temp. máximas Temp. mínimas Temp. medias Precipitaciones Rachas de viento máximas Velocidades máximas media en intervalos de 10 minutos

Datos horarios

Fecha y hora oficial Temperatura (ºC) Velocidad del viento (km/h) Dirección del viento Racha (km/h) Dirección de racha Precipitación (mm) Presión (hPa) Tendencia (hPa) Humedad (%)
2019-08-24 23:00:00 24.6 13 Noroeste 27 Oeste 0 939.2 1.3 40
2019-08-24 22:00:00 26.8 13 Oeste 33 Noroeste 0 938.9 0.6 35
2019-08-24 21:00:00 30.5 7 Sudoeste 18 Sudoeste 0 938.2 -0.5 16
2019-08-24 20:00:00 33.3 6 Sur 17 Sudoeste 0 937.9 -1 14
2019-08-24 19:00:00 33.9 9 Sur 27 Sudoeste 0 938.3 -1.1 13
2019-08-24 18:00:00 34.3 11 Sur 33 Sudoeste 0 938.7 -1.1 13
2019-08-24 17:00:00 35.4 8 Sur 31 Sudoeste 0 938.9 -1.1 12
2019-08-24 16:00:00 35.1 16 Sur 30 Sur 0 939.4 -1.2 12
2019-08-24 15:00:00 34.4 6 Sudoeste 31 Sudoeste 0 939.8 -1.3 13
2019-08-24 14:00:00 33.9 8 Sudeste 24 Sur 0 940 -1.2 15
2019-08-24 13:00:00 33 4 Sur 17 Sur 0 940.6 -0.6 17
2019-08-24 12:00:00 29.6 5 Oeste 12 Oeste 0 941.1 0.3 25
2019-08-24 11:00:00 26.6 2 Sudeste 8 Nordeste 0 941.2 0.5 32
2019-08-24 10:00:00 22.5 2 Sudeste 12 Sudeste 0 941.2 0.7 42
2019-08-24 09:00:00 18.6 8 Este 12 Sudeste 0 940.8 0.2 52
2019-08-24 08:00:00 15.9 6 Este 10 Sur 0 940.7 0 61
2019-08-24 07:00:00 16.6 7 Este 13 Este 0 940.5 -0.3 56
2019-08-24 06:00:00 16.5 8 Este 10 Este 0 940.6 -0.2 56
2019-08-24 05:00:00 17.6 6 Sudeste 9 Este 0 940.7 -0.2 51
2019-08-24 04:00:00 18.4 5 Este 9 Este 0 940.8 0.3 49
2019-08-24 03:00:00 19.1 6 Este 9 Este 0 940.8 0.6 48
2019-08-24 02:00:00 21.8 4 Sudoeste 10 Noroeste 0 940.9 0.8 42
2019-08-24 01:00:00 23.4 7 Noroeste 14 Noroeste 0 940.5 1.3 38
2019-08-24 00:00:00 25.2 10 Noroeste 14 Oeste 0 940.2 1.4 31
2019-08-23 23:00:00 26.1 6 Oeste 21 Oeste 0 940.1 1.4 26
2019-08-23 22:00:00 27.9 5 Sur 9 Sudeste 0 939.2 0.2 22
2019-08-23 21:00:00 31 6 Oeste 13 Sudoeste 0 938.8 -0.5 18
2019-08-23 20:00:00 33.5 5 Oeste 19 Oeste 0 938.7 -0.9 14
2019-08-23 19:00:00 34.2 3 Noroeste 17 Oeste 0 939 -1 13
2019-08-23 18:00:00 34.8 7 Sudoeste 21 Sudoeste 0 939.3 -1.2 14
2019-08-23 17:00:00 34.6 12 Sudoeste 28 Sudoeste 0 939.6 -1.3 14
2019-08-23 16:00:00 33.9 8 Sudoeste 23 Sur 0 940 -1.3 15
2019-08-23 15:00:00 33.9 7 Sur 27 Sudeste 0 940.5 -1.2 14
2019-08-23 14:00:00 32.8 10 Este 25 Sur 0 940.9 -1 14
2019-08-23 13:00:00 32.1 6 Sudoeste 18 Oeste 0 941.3 -0.4 15
2019-08-23 12:00:00 30.1 4 Norte 10 Nordeste 0 941.7 0.1 17
2019-08-23 11:00:00 25.1 6 Oeste 10 Oeste 0 941.9 0.5 22
2019-08-23 10:00:00 21.5 0 Calma 10 Este 0 941.7 0.9 32
2019-08-23 09:00:00 18 6 Sudeste 18 Este 0 941.6 1.1 34
2019-08-23 08:00:00 14.6 3 Sudeste 10 Noroeste 0 941.4 1 53
2019-08-23 07:00:00 15.2 5 Noroeste 10 Oeste 0 940.8 0.5 51
2019-08-23 06:00:00 15.6 4 Sudeste 10 Sur 0 940.5 -0.1 46
2019-08-23 05:00:00 17.2 4 Sudoeste 7 Sudoeste 0 940.4 -0.4 39
2019-08-23 04:00:00 19.8 3 Sudeste 10 Sudeste 0 940.3 -0.7 25
2019-08-23 03:00:00 21.2 7 Sudeste 11 Este 0 940.6 -0.3 22
2019-08-23 02:00:00 22.6 7 Este 16 Este 0 940.8 0 21
2019-08-23 01:00:00 24.1 9 Este 21 Este 0 941 0.7 20
2019-08-23 00:00:00 24.1 11 Sudeste 20 Nordeste 0 940.9 0.8 22
2019-08-22 23:00:00 25.6 11 Nordeste 19 Nordeste 0 940.8 1 24
2019-08-22 22:00:00 26.4 12 Nordeste 24 Nordeste 0 940.3 0.4 23
2019-08-22 21:00:00 29.2 15 Nordeste 25 Nordeste 0 940.1 0 20
2019-08-22 20:00:00 31.1 17 Nordeste 31 Este 0 939.8 -0.7 16
2019-08-22 19:00:00 32 15 Nordeste 28 Nordeste 0 939.9 -1.1 16
2019-08-22 18:00:00 32.7 9 Nordeste 28 Nordeste 0 940.1 -1.4 15
2019-08-22 17:00:00 32.9 15 Nordeste 30 Nordeste 0 940.5 -1.4 16
2019-08-22 16:00:00 31.8 11 Nordeste 28 Nordeste 0 941 -1.7 19
2019-08-22 15:00:00 31 11 Norte 30 Norte 0 941.5 -1.5 21
2019-08-22 14:00:00 30.6 8 Nordeste 24 Este 0 941.9 -1.1 24
2019-08-22 13:00:00 28.6 8 Sudeste 21 Norte 0 942.7 -0.4 30
2019-08-22 12:00:00 26.1 5 Norte 17 Norte 0 943 0.1 36
2019-08-22 11:00:00 23.7 4 Nordeste 10 Nordeste 0 943 0.7 42
2019-08-22 10:00:00 21 3 Nordeste 9 Este 0 943.1 1.3 48
2019-08-22 09:00:00 18.5 5 Este 17 Nordeste 0 942.9 1.5 54
2019-08-22 08:00:00 16.7 11 Nordeste 19 Nordeste 0 942.3 0.4 60
2019-08-22 07:00:00 14.5 0 Calma 9 Sur 0 941.8 0.2 67
2019-08-22 06:00:00 15.8 3 Nordeste 13 Norte 0 941.4 -0.2 62
2019-08-22 05:00:00 15.6 6 Oeste 10 Sudeste 0 941.9 0.2 62
2019-08-22 04:00:00 17 6 Sudeste 22 Este 0 941.6 0 56
2019-08-22 03:00:00 18.7 4 Noroeste 9 Sudoeste 0 941.6 0.3 49
2019-08-22 02:00:00 20.2 6 Noroeste 10 Noroeste 0 941.7 0.9 45
2019-08-22 01:00:00 22.2 3 Nordeste 12 Nordeste 0 941.6 1.4 39
2019-08-22 00:00:00 23.4 7 Este 30 Este 0 941.3 1.4 36
2019-08-21 23:00:00 23.2 12 Norte 15 Norte 0 940.8 1.2 36
2019-08-21 22:00:00 24.3 12 Norte 14 Norte 0 940.2 0.5 32
2019-08-21 21:00:00 28 8 Norte 21 Norte 0 939.9 0.1 25
2019-08-21 20:00:00 30.3 7 Noroeste 22 Norte 0 939.6 -0.4 21
2019-08-21 19:00:00 30.6 12 Norte 23 Norte 0 939.7 -0.9 21
2019-08-21 18:00:00 30.4 8 Este 22 Nordeste 0 939.8 -1.4 22
2019-08-21 17:00:00 30.6 6 Nordeste 26 Norte 0 940 -1.7 24
2019-08-21 16:00:00 29.4 10 Norte 21 Norte 0 940.6 -1.5 25
2019-08-21 15:00:00 28.8 4 Sudoeste 15 Norte 0 941.2 -1 28
2019-08-21 14:00:00 25.7 5 Nordeste 17 Norte 0 941.7 -0.5 34
2019-08-21 13:00:00 22.9 4 Norte 15 Este 0 942.1 0 41
2019-08-21 12:00:00 21.9 6 Nordeste 15 Oeste 0 942.2 0.3 44
2019-08-21 11:00:00 19.7 4 Nordeste 12 Norte 0 942.2 0.4 49
2019-08-21 10:00:00 18.5 3 Nordeste 15 Nordeste 0 942.1 0.9 53
2019-08-21 09:00:00 16.4 12 Nordeste 18 Nordeste 0 941.9 0.6 60
2019-08-21 08:00:00 14.9 5 Norte 18 Nordeste 0 941.8 0.7 64
2019-08-21 07:00:00 15.2 6 Norte 18 Norte 0 941.2 0.3 61
2019-08-21 06:00:00 16.5 4 Norte 23 Nordeste 0 941.3 0.5 57
2019-08-21 05:00:00 17.5 13 Nordeste 23 Nordeste 0 941.1 0.5 52
2019-08-21 04:00:00 18 6 Nordeste 36 Nordeste 0 940.9 0.1 50
2019-08-21 03:00:00 18.8 26 Este 59 Nordeste 0 940.8 -0.1 47
2019-08-21 02:00:00 19.4 31 Nordeste 51 Nordeste 0 940.6 0 46
2019-08-21 01:00:00 20.2 32 Nordeste 50 Este 0 940.8 0.5 42
2019-08-21 00:00:00 21.3 35 Nordeste 51 Nordeste 0 940.9 1 37
2019-08-20 23:00:00 22.4 20 Nordeste 30 Nordeste 0 940.6 0.9 30
2019-08-20 22:00:00 23.8 15 Nordeste 26 Nordeste 0 940.3 0.6 25
2019-08-20 21:00:00 26.2 18 Nordeste 32 Nordeste 0 939.9 0.1 24
2019-08-20 20:00:00 27.8 18 Nordeste 30 Nordeste 0 939.7 -0.5 20
2019-08-20 19:00:00 28.2 22 Nordeste 33 Nordeste 0 939.7 -1.1 19
2019-08-20 18:00:00 28.6 18 Nordeste 37 Norte 0 939.8 -1.2 20
2019-08-20 17:00:00 28.2 16 Nordeste 39 Nordeste 0 940.2 -1.3 22
2019-08-20 16:00:00 27.9 14 Nordeste 48 Nordeste 0 940.8 -1.2 26
2019-08-20 15:00:00 26.2 29 Nordeste 45 Nordeste 0 941 -1.1 30
2019-08-20 14:00:00 24.3 32 Nordeste 50 Nordeste 0 941.5 -0.6 37
2019-08-20 13:00:00 22.7 27 Nordeste 46 Nordeste 0 942 0.4 44
2019-08-20 12:00:00 21 21 Nordeste 41 Nordeste 0 942.1 1.1 50
2019-08-20 11:00:00 18.7 24 Este 41 Este 0 942.1 1.4 58
2019-08-20 10:00:00 17.2 20 Nordeste 42 Nordeste 0 941.6 1.3 63
2019-08-20 09:00:00 15.6 10 Este 32 Nordeste 0 941 1.2 68
2019-08-20 08:00:00 14.1 6 Norte 24 Nordeste 0 940.7 1.4 72
2019-08-20 07:00:00 14.7 9 Nordeste 24 Este 0 940.3 1.3 69
2019-08-20 06:00:00 15.3 13 Nordeste 23 Nordeste 0 939.8 0.7 68
2019-08-20 05:00:00 15.9 7 Norte 23 Norte 0 939.3 -0.1 64
2019-08-20 04:00:00 16.1 9 Norte 22 Norte 0 939 -0.2 65
2019-08-20 03:00:00 16.2 8 Noroeste 16 Noroeste 0 939.1 0.3 69
2019-08-20 02:00:00 17.3 9 Noroeste 20 Noroeste 0 939.4 0.9 65
2019-08-20 01:00:00 18.3 9 Noroeste 28 Noroeste 0 939.2 1.1 63
2019-08-20 00:00:00 18.9 14 Noroeste 30 Noroeste 0 938.8 0.9 62
2019-08-19 23:00:00 20.7 12 Noroeste 25 Noroeste 0 938.5 0.9 52
2019-08-19 22:00:00 22.1 9 Norte 15 Noroeste 0 938.1 0.2 32
2019-08-19 21:00:00 23.6 9 Noroeste 22 Noroeste 0 937.9 0 30
2019-08-19 20:00:00 25.3 12 Norte 23 Norte 0 937.6 -0.7 27
2019-08-19 19:00:00 25.5 12 Noroeste 24 Noroeste 0 937.9 -0.6 30
2019-08-19 18:00:00 25.4 12 Norte 24 Norte 0 937.9 -0.9 31
2019-08-19 17:00:00 25.7 9 Noroeste 20 Noroeste 0 938.3 -0.6 29
2019-08-19 16:00:00 25.1 9 Noroeste 18 Oeste 0 938.5 -0.7 32
2019-08-19 15:00:00 25.2 7 Norte 22 Nordeste 0 938.8 -0.2 36
2019-08-19 14:00:00 24.6 6 Este 20 Nordeste 0 938.9 0.1 39
2019-08-19 13:00:00 23.7 8 Norte 22 Nordeste 0 939.2 0.3 42
2019-08-19 12:00:00 22.1 9 Norte 21 Norte 0 939 0.2 47
2019-08-19 11:00:00 19.8 4 Nordeste 14 Oeste 0 938.8 0 55
2019-08-19 10:00:00 16.1 7 Noroeste 13 Noroeste 0 938.9 0 74
2019-08-19 09:00:00 14.6 4 Noroeste 8 Noroeste 0 938.8 0.1 82
2019-08-19 08:00:00 13.9 4 Oeste 9 Noroeste 0 938.8 -0.1 83
2019-08-19 07:00:00 14.3 4 Noroeste 11 Oeste 0 938.9 -0.1 83
2019-08-19 06:00:00 14.6 5 Norte 18 Noroeste 0 938.7 -0.6 81
2019-08-19 05:00:00 14.9 8 Noroeste 14 Noroeste 0 938.9 -0.7 81
2019-08-19 04:00:00 15.4 5 Noroeste 15 Noroeste 0 939 -0.7 79
2019-08-19 03:00:00 16.4 8 Noroeste 15 Oeste 0 939.3 -0.1 77
2019-08-19 02:00:00 17.2 7 Noroeste 17 Oeste 0 939.6 1 75
2019-08-19 01:00:00 18.1 13 Noroeste 23 Oeste 0 939.7 2.1 74
2019-08-19 00:00:00 19.3 12 Oeste 33 Noroeste 0 939.4 2.3 73
2019-08-18 23:00:00 20.6 14 Noroeste 28 Oeste 0 938.6 1.8 69
2019-08-18 22:00:00 22.3 13 Oeste 33 Noroeste 0 937.6 0.6 58
2019-08-18 21:00:00 24.5 19 Noroeste 37 Noroeste 0 937.1 0.2 48
2019-08-18 20:00:00 26.8 17 Noroeste 34 Noroeste 0 936.8 -0.2 40
2019-08-18 19:00:00 28 15 Oeste 43 Noroeste 0 937 -0.4 36
2019-08-18 18:00:00 28.9 20 Oeste 43 Oeste 0 936.9 -0.7 37
2019-08-18 17:00:00 29.4 15 Noroeste 35 Noroeste 0 937 -1 36
2019-08-18 16:00:00 28.6 13 Oeste 33 Oeste 0 937.4 -1.1 36
2019-08-18 15:00:00 27.7 10 Oeste 28 Oeste 0 937.6 -0.9 40
2019-08-18 14:00:00 26 9 Oeste 23 Oeste 0 938 -0.3 41
2019-08-18 13:00:00 22.9 7 Sudoeste 20 Oeste 0 938.5 0.5 51
2019-08-18 12:00:00 20.3 5 Oeste 22 Oeste 0 938.5 0.7 61
2019-08-18 11:00:00 18.5 3 Noroeste 13 Sur 0 938.3 0.9 69
2019-08-18 10:00:00 17.1 5 Sur 10 Sur 0 938 0.9 76
2019-08-18 09:00:00 16.1 3 Sudoeste 9 Sudeste 0 937.8 0.6 81
2019-08-18 08:00:00 14.9 4 Sudeste 9 Sudeste 0 937.4 0.4 85
2019-08-18 07:00:00 14.9 4 Oeste 22 Oeste 0 937.1 -0.2 86
2019-08-18 06:00:00 15 15 Noroeste 30 Oeste 0 937.2 -0.4 87
2019-08-18 05:00:00 15.6 7 Oeste 9 Oeste 0 937 -0.9 81
2019-08-18 04:00:00 16.4 4 Oeste 6 Sudoeste 0 937.3 -0.4 80
2019-08-18 03:00:00 17.8 3 Sudoeste 9 Noroeste 0 937.6 0 75
2019-08-18 02:00:00 18.8 6 Noroeste 18 Oeste 0 937.9 0.7 71
2019-08-18 01:00:00 20.2 6 Oeste 18 Oeste 0 937.7 1.3 67
2019-08-18 00:00:00 22 10 Noroeste 28 Oeste 0 937.6 2 61
2019-08-17 23:00:00 24 17 Noroeste 39 Noroeste 0 937.2 1.8 53
2019-08-17 22:00:00 27.3 17 Oeste 33 Oeste 0 936.4 0.7 40
2019-08-17 21:00:00 31 15 Oeste 33 Noroeste 0 935.6 -0.4 21
2019-08-17 20:00:00 33.4 14 Noroeste 29 Noroeste 0 935.4 -1.2 16
2019-08-17 19:00:00 34.7 13 Noroeste 33 Noroeste 0 935.7 -1.6 13
2019-08-17 18:00:00 35.6 13 Oeste 29 Noroeste 0 936 -1.9 12
2019-08-17 17:00:00 35.1 8 Oeste 34 Oeste 0 936.6 -1.9 12
2019-08-17 16:00:00 34.2 9 Sudoeste 28 Sudoeste 0 937.3 -2 13
2019-08-17 15:00:00 32.6 7 Oeste 22 Sudoeste 0 937.9 -2 14
2019-08-17 14:00:00 31.6 5 Norte 19 Oeste 0 938.5 -1.6 18
2019-08-17 13:00:00 29.2 6 Noroeste 15 Noroeste 0 939.3 -0.8 25
2019-08-17 12:00:00 25.9 6 Noroeste 16 Noroeste 0 939.9 -0.1 34
2019-08-17 11:00:00 22.9 5 Oeste 11 Oeste 0 940.1 0.2 45
2019-08-17 10:00:00 20 3 Nordeste 7 Nordeste 0 940.1 0.4 54
2019-08-17 09:00:00 16.3 2 Sudeste 8 Sudeste 0 940 0.4 66
2019-08-17 08:00:00 13.1 5 Sudeste 8 Este 0 939.9 -0.1 79
2019-08-17 07:00:00 13 3 Norte 9 Sudeste 0 939.7 -0.5 78
2019-08-17 06:00:00 14.9 2 Oeste 5 Norte 0 939.6 -0.8 74
2019-08-17 05:00:00 15.3 4 Noroeste 7 Sudeste 0 940 -0.8 71
2019-08-17 04:00:00 16.7 4 Sudeste 6 Sudeste 0 940.2 -0.4 66
2019-08-17 03:00:00 18.1 2 Norte 4 Noroeste 0 940.4 0.1 64
2019-08-17 02:00:00 19.1 4 Noroeste 6 Noroeste 0 940.8 0.9 58
2019-08-17 01:00:00 20.4 3 Noroeste 14 Noroeste 0 940.6 1.4 54
2019-08-17 00:00:00 22 9 Noroeste 23 Noroeste 0 940.3 1.7 49
2019-08-16 23:00:00 24.1 14 Noroeste 27 Noroeste 0 939.9 1.7 41
2019-08-16 22:00:00 26.4 16 Noroeste 34 Noroeste 0 939.2 0.8 36
2019-08-16 21:00:00 29.6 17 Noroeste 39 Oeste 0 938.6 -0.1 30
2019-08-16 20:00:00 31.9 21 Oeste 37 Noroeste 0 938.2 -0.8 24
2019-08-16 19:00:00 33.7 13 Oeste 27 Noroeste 0 938.4 -0.9 20
2019-08-16 18:00:00 34.6 12 Oeste 35 Noroeste 0 938.7 -1 13
2019-08-16 17:00:00 34.7 12 Oeste 32 Noroeste 0 939 -1.3 12
2019-08-16 16:00:00 33.6 12 Oeste 28 Noroeste 0 939.3 -1.5 16
2019-08-16 15:00:00 32.9 8 Sudoeste 23 Noroeste 0 939.7 -1.5 22
2019-08-16 14:00:00 30.6 5 Oeste 23 Oeste 0 940.3 -1 27
2019-08-16 13:00:00 28.9 6 Nordeste 17 Norte 0 940.8 -0.8 33
2019-08-16 12:00:00 26.5 8 Noroeste 17 Noroeste 0 941.2 -0.2 40
2019-08-16 11:00:00 24.3 4 Norte 13 Norte 0 941.3 0.1 49
2019-08-16 10:00:00 20.8 5 Oeste 9 Oeste 0 941.6 0.5 64
2019-08-16 09:00:00 17.6 2 Nordeste 9 Este 0 941.4 0.5 70
2019-08-16 08:00:00 15.3 2 Este 8 Este 0 941.2 0.2 79
2019-08-16 07:00:00 15.8 4 Sudeste 8 Este 0 941.1 -0.1 77
2019-08-16 06:00:00 17 2 Sur 6 Noroeste 0 940.9 -0.4 74
2019-08-16 05:00:00 17.6 4 Este 8 Este 0 941 -0.6 72
2019-08-16 04:00:00 18.6 3 Sudeste 8 Noroeste 0 941.2 -0.4 69
2019-08-16 03:00:00 20.2 7 Noroeste 9 Noroeste 0 941.3 -0.1 63
2019-08-16 02:00:00 21.3 4 Oeste 12 Noroeste 0 941.6 0.3 59
2019-08-16 01:00:00 22.6 9 Oeste 24 Noroeste 0 941.6 1.1 55
2019-08-16 00:00:00 24.3 13 Noroeste 27 Noroeste 0 941.4 1.5 50
2019-08-15 23:00:00 25.9 14 Noroeste 30 Noroeste 0 941.3 1.5 42
2019-08-15 22:00:00 27.5 13 Noroeste 25 Noroeste 0 940.5 0.6 29
2019-08-15 21:00:00 30.3 12 Norte 33 Norte 0 939.9 -0.1 24
2019-08-15 20:00:00 32.1 13 Noroeste 29 Norte 0 939.8 -0.5 20
2019-08-15 19:00:00 32.8 13 Noroeste 30 Noroeste 0 939.9 -1.2 19
2019-08-15 18:00:00 33.6 13 Noroeste 31 Norte 0 940 -1.5 16
2019-08-15 17:00:00 34.2 7 Noroeste 28 Norte 0 940.3 -1.6 14
2019-08-15 16:00:00 32.9 5 Este 25 Norte 0 941.1 -1.3 16
2019-08-15 15:00:00 32.3 10 Norte 28 Norte 0 941.5 -1.1 16
2019-08-15 14:00:00 31 10 Nordeste 27 Norte 0 941.9 -0.8 19
2019-08-15 13:00:00 29.7 10 Norte 27 Nordeste 0 942.4 -0.6 18
2019-08-15 12:00:00 27.8 14 Nordeste 27 Norte 0 942.6 -0.2 31
2019-08-15 11:00:00 24.5 4 Oeste 16 Norte 0 942.7 -0.3 51
2019-08-15 10:00:00 20.6 5 Oeste 11 Oeste 0 943 0.5 64
2019-08-15 09:00:00 18.2 3 Sudoeste 6 Sudeste 0 942.8 0.2 73
2019-08-15 08:00:00 15.3 4 Sur 7 Noroeste 0 943 0.6 82
2019-08-15 07:00:00 16.3 3 Noroeste 7 Noroeste 0 942.5 0 81
2019-08-15 06:00:00 16.5 2 Este 6 Nordeste 0 942.6 0.1 78
2019-08-15 05:00:00 17.5 4 Este 8 Sudeste 0 942.4 -0.1 73
2019-08-15 04:00:00 19.5 6 Noroeste 13 Noroeste 0 942.5 -0.1 69
2019-08-15 03:00:00 20.3 6 Noroeste 18 Noroeste 0 942.5 0.1 66
2019-08-15 02:00:00 21.3 12 Noroeste 19 Noroeste 0 942.5 0.4 62
2019-08-15 01:00:00 22.6 9 Noroeste 28 Norte 0 942.6 1.3 58
2019-08-15 00:00:00 24 18 Noroeste 36 Norte 0 942.4 1.7 53
2019-08-14 23:00:00 25.2 12 Noroeste 29 Noroeste 0 942.1 1.6 48
2019-08-14 22:00:00 26.9 12 Noroeste 24 Norte 0 941.3 0.7 38
2019-08-14 21:00:00 29.3 10 Noroeste 26 Noroeste 0 940.7 -0.1 27
2019-08-14 20:00:00 30.5 15 Noroeste 29 Norte 0 940.5 -0.8 25
2019-08-14 19:00:00 31.9 12 Noroeste 31 Norte 0 940.6 -1.1 22
2019-08-14 18:00:00 32.2 9 Noroeste 27 Norte 0 940.8 -1.4 21
2019-08-14 17:00:00 31.6 11 Noroeste 32 Noroeste 0 941.3 -1.2 19
2019-08-14 16:00:00 31.1 10 Noroeste 27 Norte 0 941.7 -1.4 19
2019-08-14 15:00:00 30.8 10 Noroeste 23 Noroeste 0 942.2 -1.2 18
2019-08-14 14:00:00 29 4 Sur 19 Oeste 0 942.5 -1 20
2019-08-14 13:00:00 27.5 9 Sudoeste 20 Oeste 0 943.1 -0.5 22
2019-08-14 12:00:00 25.1 5 Norte 15 Norte 0 943.4 0 27
2019-08-14 11:00:00 21.7 3 Nordeste 10 Sur 0 943.5 0.5 37
2019-08-14 10:00:00 18.2 2 Sudeste 8 Este 0 943.6 0.9 42
2019-08-14 09:00:00 13.7 5 Este 9 Sudeste 0 943.4 0.8 52
2019-08-14 08:00:00 11.3 2 Este 10 Este 0 943 0.5 58
2019-08-14 07:00:00 12.1 6 Este 10 Este 0 942.7 0.2 53
2019-08-14 06:00:00 11.7 7 Este 10 Este 0 942.6 -0.1 55
2019-08-14 05:00:00 12.7 4 Sudeste 9 Oeste 0 942.5 -0.1 52
2019-08-14 04:00:00 14.9 9 Oeste 13 Oeste 0 942.5 0 45
2019-08-14 03:00:00 15.1 6 Oeste 12 Sudeste 0 942.7 0.6 42
2019-08-14 02:00:00 17.1 4 Noroeste 12 Noroeste 0 942.6 0.7 36
2019-08-14 01:00:00 18.4 6 Noroeste 17 Noroeste 0 942.5 1.2 29
2019-08-14 00:00:00 18.6 11 Noroeste 22 Oeste 0 942.1 1.1 30
2019-08-13 23:00:00 19.8 12 Norte 16 Norte 0 941.9 1.2 27
2019-08-13 22:00:00 22.8 11 Noroeste 19 Noroeste 0 941.3 0.6 20
2019-08-13 21:00:00 26.1 12 Noroeste 27 Norte 0 941 0.2 16
2019-08-13 20:00:00 27.8 11 Norte 24 Norte 0 940.7 -0.6 15
2019-08-13 19:00:00 28.3 12 Norte 27 Norte 0 940.7 -1.1 14
2019-08-13 18:00:00 28.9 7 Noroeste 28 Norte 0 940.8 -1.2 13
2019-08-13 17:00:00 29 11 Norte 29 Noroeste 0 941.3 -1.2 13
2019-08-13 16:00:00 27.9 9 Noroeste 30 Norte 0 941.8 -1 14
2019-08-13 15:00:00 26.7 13 Norte 27 Nordeste 0 942 -1.1 17
2019-08-13 14:00:00 25.4 9 Este 28 Nordeste 0 942.5 -0.8 21
2019-08-13 13:00:00 24.3 14 Nordeste 30 Nordeste 0 942.8 -0.2 23
2019-08-13 12:00:00 22 12 Nordeste 23 Nordeste 0 943.1 0 32
2019-08-13 11:00:00 19.1 11 Nordeste 18 Nordeste 0 943.3 0.8 41
2019-08-13 10:00:00 16.8 9 Este 23 Este 0 943 1 50
2019-08-13 09:00:00 14.8 5 Este 13 Nordeste 0 943.1 1.3 55
2019-08-13 08:00:00 12.5 4 Este 21 Este 0 942.5 0.6 63
2019-08-13 07:00:00 13.4 14 Nordeste 31 Nordeste 0 942 0 59
2019-08-13 06:00:00 14.2 17 Nordeste 30 Este 0 941.8 -0.3 54
2019-08-13 05:00:00 15.5 10 Nordeste 30 Nordeste 0 941.9 -0.7 45
2019-08-13 04:00:00 16.1 15 Nordeste 33 Nordeste 0 942 -0.6 39
2019-08-13 03:00:00 14.7 7 Norte 18 Noroeste 0 942.1 -0.4 39
2019-08-13 02:00:00 15.6 5 Oeste 30 Norte 0 942.6 0.1 35
2019-08-13 01:00:00 16.8 8 Norte 27 Nordeste 0 942.6 1 32
2019-08-13 00:00:00 18.5 15 Nordeste 24 Norte 0 942.5 1.3 27
2019-08-12 23:00:00 17.6 12 Norte 17 Norte 0 942.5 1.4 30
2019-08-12 22:00:00 20.2 9 Norte 21 Norte 0 941.6 0.3 25
2019-08-12 21:00:00 22.1 13 Norte 27 Norte 0 941.2 -0.1 20
2019-08-12 20:00:00 23.2 14 Nordeste 29 Norte 0 941.1 -0.4 19
2019-08-12 19:00:00 24 13 Nordeste 32 Nordeste 0 941.3 -0.9 18
2019-08-12 18:00:00 24.8 17 Norte 40 Norte 0 941.3 -1.3 20
2019-08-12 17:00:00 24.9 19 Norte 39 Norte 0 941.5 -1.7 19
2019-08-12 16:00:00 24.1 19 Nordeste 40 Nordeste 0 942.2 -1.3 22
2019-08-12 15:00:00 23.4 15 Norte 42 Norte 0 942.6 -1.1 24
2019-08-12 14:00:00 21.5 20 Nordeste 41 Nordeste 0 943.2 -0.5 26
2019-08-12 13:00:00 20.6 18 Nordeste 38 Nordeste 0 943.5 -0.2 30
2019-08-12 12:00:00 19.2 15 Nordeste 37 Nordeste 0 943.7 0.4 38
2019-08-12 11:00:00 16.8 21 Nordeste 35 Nordeste 0 943.7 0.8 45
2019-08-12 10:00:00 14.9 9 Norte 20 Nordeste 0 943.7 1.1 57
2019-08-12 09:00:00 12.1 8 Norte 19 Norte 0 943.3 0.8 70
2019-08-12 08:00:00 9.8 12 Norte 22 Norte 0 942.9 0.1 80
2019-08-12 07:00:00 9.5 15 Norte 22 Norte 0 942.6 -0.2 80
2019-08-12 06:00:00 9.4 9 Noroeste 12 Noroeste 0 942.5 -0.7 81
2019-08-12 05:00:00 10.4 7 Norte 9 Norte 0 942.8 -0.7 76
2019-08-12 04:00:00 11.2 3 Noroeste 6 Norte 0 942.8 -0.3 74
2019-08-12 03:00:00 12.3 3 Norte 6 Norte 0 943.2 0.3 69
2019-08-12 02:00:00 13.3 4 Sudoeste 21 Norte 0 943.5 1 64
2019-08-12 01:00:00 14.1 13 Noroeste 29 Noroeste 0 943.1 1.3 61
2019-08-12 00:00:00 14.9 14 Noroeste 31 Noroeste 0 942.9 1.8 57
2019-08-11 23:00:00 16.1 15 Noroeste 33 Noroeste 0 942.5 1.9 53
2019-08-11 22:00:00 17.7 18 Noroeste 35 Noroeste 0 941.8 1.3 46
2019-08-11 21:00:00 20.3 13 Noroeste 38 Noroeste 0 941.1 0.6 33
2019-08-11 20:00:00 21.3 15 Noroeste 40 Norte 0 940.6 -0.1 28
2019-08-11 19:00:00 22.7 18 Noroeste 39 Oeste 0 940.5 -0.5 24
2019-08-11 18:00:00 23.2 20 Noroeste 44 Noroeste 0 940.5 -0.6 24
2019-08-11 17:00:00 23.5 19 Noroeste 44 Noroeste 0 940.7 -0.8 25
2019-08-11 16:00:00 23.3 16 Noroeste 55 Oeste 0 941 -1 27
2019-08-11 15:00:00 22 17 Noroeste 37 Noroeste 0 941.1 -0.5 28
2019-08-11 14:00:00 21.5 13 Noroeste 36 Norte 0 941.5 -0.1 33
2019-08-11 13:00:00 19.7 9 Noroeste 30 Noroeste 0 942 0.5 42
2019-08-11 12:00:00 18 12 Noroeste 27 Noroeste 0 941.6 0.3 57
2019-08-11 11:00:00 16.4 9 Noroeste 27 Norte 0 941.6 1.2 67
2019-08-11 10:00:00 14 13 Noroeste 22 Noroeste 0 941.5 1.3 78
2019-08-11 09:00:00 12.6 9 Noroeste 21 Noroeste 0 941.3 1.3 85
2019-08-11 08:00:00 12.7 11 Noroeste 20 Noroeste 0 940.4 0.5 85
2019-08-11 07:00:00 12.8 9 Noroeste 17 Noroeste 0 940.2 0.3 86
2019-08-11 06:00:00 13.1 10 Noroeste 20 Noroeste 0 940 -1 87
2019-08-11 05:00:00 13.8 13 Noroeste 22 Noroeste 0 939.9 -1.1 87
2019-08-11 04:00:00 14.5 7 Noroeste 14 Noroeste 0.6 939.9 -1.1 86
2019-08-11 03:00:00 15.3 8 Oeste 16 Sudoeste 0.8 941 0.5 79
2019-08-11 02:00:00 17.5 8 Noroeste 23 Noroeste 0 941 0.1 57
2019-08-11 01:00:00 17.9 15 Noroeste 35 Noroeste 0 941 1 55
2019-08-11 00:00:00 18.7 13 Noroeste 34 Noroeste 0 940.5 1 54
2019-08-10 23:00:00 20.1 14 Noroeste 33 Noroeste 0 940.9 1.5 47
2019-08-10 22:00:00 21.5 18 Noroeste 36 Noroeste 0 940 0.4 40
2019-08-10 21:00:00 24.1 18 Noroeste 40 Noroeste 0 939.5 -0.4 29
2019-08-10 20:00:00 25.8 10 Noroeste 27 Norte 0 939.4 -1 26
2019-08-10 19:00:00 26.2 14 Norte 26 Norte 0 939.6 -1.4 24
2019-08-10 18:00:00 26.4 11 Norte 26 Noroeste 0 939.9 -1.8 24
2019-08-10 17:00:00 27.2 11 Oeste 23 Sudoeste 0 940.4 -1.7 24
2019-08-10 16:00:00 26.5 5 Oeste 24 Noroeste 0 941 -1.7 27
2019-08-10 15:00:00 24.9 8 Nordeste 22 Nordeste 0 941.7 -1.1 30
2019-08-10 14:00:00 23.9 5 Sudeste 23 Norte 0 942.1 -0.7 32
2019-08-10 13:00:00 22.4 6 Oeste 19 Norte 0 942.7 -0.2 42
2019-08-10 12:00:00 20.7 9 Norte 17 Nordeste 0 942.8 -0.1 48
2019-08-10 11:00:00 18.9 6 Norte 17 Norte 0 942.8 0.2 59
2019-08-10 10:00:00 16.6 7 Norte 13 Norte 0 942.9 0.7 73
2019-08-10 09:00:00 13.9 3 Sudeste 6 Sudeste 0 942.9 1 85
2019-08-10 08:00:00 12.9 3 Este 4 Sudeste 0 942.6 0.6 87
2019-08-10 07:00:00 12.7 4 Noroeste 6 Noroeste 0 942.2 0 87
2019-08-10 06:00:00 12.7 3 Este 10 Este 0 941.9 -0.2 86
2019-08-10 05:00:00 12.7 5 Este 9 Este 0 942 -0.1 85
2019-08-10 04:00:00 13 4 Sudeste 6 Este 0 942.2 0.4 81
2019-08-10 03:00:00 14.2 0 Calma 6 Noroeste 0 942.1 0.5 78
2019-08-10 02:00:00 14.6 0 Calma 11 Noroeste 0 942.1 0.8 74
2019-08-10 01:00:00 16 8 Noroeste 17 Noroeste 0 941.8 1.4 68
2019-08-10 00:00:00 16.7 8 Noroeste 19 Noroeste 0 941.6 1.7 64
2019-08-09 23:00:00 18 6 Noroeste 25 Oeste 0 941.3 2.1 59
2019-08-09 22:00:00 19.7 14 Oeste 37 Oeste 0 940.4 1.3 51
2019-08-09 21:00:00 22.3 17 Oeste 36 Noroeste 0 939.9 0.5 41
2019-08-09 20:00:00 24 15 Oeste 33 Oeste 0 939.2 -0.2 36
2019-08-09 19:00:00 25 13 Oeste 28 Sur 0 939.1 -0.5 33
2019-08-09 18:00:00 22.8 12 Este 31 Sudeste 0 939.4 0.3 52
2019-08-09 17:00:00 22.2 18 Sur 28 Sudeste 0.2 939.4 0.4 60
2019-08-09 16:00:00 22 6 Sudoeste 30 Oeste 0 939.6 0.6 62
2019-08-09 15:00:00 23.2 12 Oeste 31 Oeste 0 939.1 0.3 56
2019-08-09 14:00:00 22.9 12 Oeste 27 Noroeste 0 939 0.6 60
2019-08-09 13:00:00 22.6 10 Noroeste 21 Oeste 0 939 1 68
2019-08-09 12:00:00 20 10 Oeste 23 Oeste 0 938.8 1.5 79
2019-08-09 11:00:00 18.1 14 Oeste 28 Oeste 0.6 938.4 1.6 88
2019-08-09 10:00:00 16.7 15 Noroeste 31 Oeste 0.8 938 1.6 89
2019-08-09 09:00:00 16.9 12 Noroeste 31 Sudoeste 0.4 937.3 1.2 88
2019-08-09 08:00:00 20.5 15 Sudoeste 32 Sudoeste 0 936.8 0.6 78
2019-08-09 07:00:00 20.3 13 Sur 27 Sur 0 936.4 -0.4 78
2019-08-09 06:00:00 20.2 17 Sur 36 Sur 0 936.1 -0.6 78
2019-08-09 05:00:00 19.8 11 Sur 20 Sur 0 936.2 -0.6 77
2019-08-09 04:00:00 19.7 6 Sudeste 24 Sudoeste 0 936.8 0.1 74
2019-08-09 03:00:00 20.4 11 Sudoeste 30 Sudoeste 0 936.7 -0.2 70
2019-08-09 02:00:00 20.8 10 Sudoeste 26 Sudoeste 0 936.8 -0.1 68
2019-08-09 01:00:00 21.2 11 Sur 23 Sur 0 936.7 0.5 66
2019-08-09 00:00:00 22.1 6 Sudoeste 17 Sur 0 936.9 0.8 61
2019-08-08 23:00:00 23.3 9 Sudoeste 25 Sur 0 936.9 1.1 55
2019-08-08 22:00:00 24.5 14 Sudoeste 33 Sudoeste 0 936.2 0.3 49
2019-08-08 21:00:00 25.9 22 Sudoeste 45 Sudoeste 0 936.1 0.1 44
2019-08-08 20:00:00 27.4 22 Sudoeste 46 Sur 0 935.8 -0.3 39
2019-08-08 19:00:00 28.2 22 Sudoeste 45 Sudoeste 0 935.9 -0.6 39
2019-08-08 18:00:00 28.1 20 Sudoeste 45 Sur 0 936 -1 40
2019-08-08 17:00:00 29.5 22 Sudoeste 52 Sudoeste 0 936.1 -1 37
2019-08-08 16:00:00 28.6 25 Sudoeste 49 Sudoeste 0 936.5 -0.8 38
2019-08-08 15:00:00 28.1 23 Sudoeste 44 Sudoeste 0 937 -0.1 42
2019-08-08 14:00:00 26.3 18 Sudoeste 42 Sudoeste 0 937.1 0.1 49
2019-08-08 13:00:00 25.9 21 Sudoeste 40 Sudoeste 0 937.3 0 52
2019-08-08 12:00:00 24.3 17 Sur 32 Sur 0 937.1 -0.1 59
2019-08-08 11:00:00 24.1 15 Sur 30 Sudoeste 0 937 0.2 61
2019-08-08 10:00:00 22.7 16 Sudoeste 27 Sur 0 937.3 0.6 66
2019-08-08 09:00:00 20.9 12 Sudoeste 24 Sudoeste 0 937.2 0.3 72
2019-08-08 08:00:00 20.4 9 Sur 23 Sur 0 936.8 -0.2 70
2019-08-08 07:00:00 20.2 7 Sudeste 15 Sur 0 936.7 -0.6 65
2019-08-08 06:00:00 20 7 Sur 14 Sudoeste 0 936.9 -0.7 65
2019-08-08 05:00:00 20.2 6 Sur 14 Sur 0 937 -0.8 64
2019-08-08 04:00:00 19.6 4 Sudeste 9 Sudeste 0 937.3 -0.4 64
2019-08-08 03:00:00 19.6 4 Sudeste 18 Sur 0 937.6 -0.1 62
2019-08-08 02:00:00 20.7 8 Sur 15 Sudoeste 0 937.8 0.3 57
2019-08-08 01:00:00 20.8 9 Sur 23 Sur 0 937.7 0.9 57
2019-08-08 00:00:00 21.3 10 Sur 22 Sudoeste 0 937.7 1.2 58
2019-08-07 23:00:00 21.8 9 Sur 17 Sur 0 937.5 1.2 57
2019-08-07 22:00:00 23.4 9 Sudoeste 33 Sudoeste 0 936.8 0.3 43
2019-08-07 21:00:00 24.5 15 Sudoeste 37 Sudoeste 0 936.5 -0.1 42
2019-08-07 20:00:00 25.4 17 Sudoeste 31 Sudoeste 0 936.3 -0.6 43
2019-08-07 19:00:00 26.2 10 Sudoeste 28 Sudoeste 0 936.5 -0.7 37
2019-08-07 18:00:00 26.5 13 Sudoeste 28 Oeste 0 936.6 -0.8 35
2019-08-07 17:00:00 25.6 9 Oeste 21 Oeste 0 936.9 -0.5 38
2019-08-07 16:00:00 24.6 12 Sur 22 Sudoeste 0 937.2 -0.4 44
2019-08-07 15:00:00 24.3 8 Oeste 21 Oeste 0 937.4 -0.3 43
2019-08-07 14:00:00 24.1 4 Sudoeste 11 Norte 0 937.4 0.2 48
2019-08-07 13:00:00 22.5 6 Oeste 16 Sudoeste 0 937.6 0.8 54
2019-08-07 12:00:00 21.6 6 Sudoeste 12 Sudoeste 0 937.7 1.2 60
2019-08-07 11:00:00 20 3 Sudeste 8 Noroeste 0 937.2 0.9 69
2019-08-07 10:00:00 18.4 2 Nordeste 7 Noroeste 0 936.8 0.8 75
2019-08-07 09:00:00 17.2 4 Sudoeste 8 Oeste 0 936.5 0.9 81
2019-08-07 08:00:00 16.6 4 Sur 9 Noroeste 0 936.3 0.7 84
2019-08-07 07:00:00 16.3 6 Noroeste 13 Noroeste 0 936 0.7 84
2019-08-07 06:00:00 16.7 6 Noroeste 18 Oeste 0 935.6 -0.1 83
2019-08-07 05:00:00 17.7 11 Noroeste 21 Noroeste 0 935.6 -0.5 78
2019-08-07 04:00:00 18.9 7 Noroeste 16 Noroeste 0 935.3 -0.9 74
2019-08-07 03:00:00 19.7 9 Noroeste 16 Noroeste 0 935.7 -0.6 70
2019-08-07 02:00:00 20.3 6 Noroeste 12 Noroeste 0 936.1 -0.3 69
2019-08-07 01:00:00 20.7 3 Sudoeste 11 Oeste 0 936.2 0.3 68
2019-08-07 00:00:00 21.2 6 Oeste 15 Oeste 0 936.3 0.8 66
2019-08-06 23:00:00 22 8 Noroeste 19 Norte 0 936.4 1.7 58
2019-08-06 22:00:00 22.8 9 Noroeste 29 Norte 0 935.9 1.1 55
2019-08-06 21:00:00 23.9 15 Noroeste 42 Noroeste 0 935.5 0.9 53
2019-08-06 20:00:00 25.5 19 Noroeste 40 Noroeste 0 934.7 -0.1 48
2019-08-06 19:00:00 27.6 20 Noroeste 40 Oeste 0 934.8 -0.1 36
2019-08-06 18:00:00 30.3 18 Noroeste 42 Oeste 0 934.6 -0.9 28
2019-08-06 17:00:00 32.4 19 Noroeste 38 Noroeste 0 934.8 -1.3 21
2019-08-06 16:00:00 32.5 15 Noroeste 32 Noroeste 0 934.9 -1.9 23
2019-08-06 15:00:00 32.2 8 Sudoeste 36 Oeste 0 935.5 -1.8 22
2019-08-06 14:00:00 30.4 7 Noroeste 24 Oeste 0 936.1 -1.2 26
2019-08-06 13:00:00 28.8 8 Sudoeste 20 Noroeste 0 936.8 -0.7 31
2019-08-06 12:00:00 26.1 9 Noroeste 18 Oeste 0 937.3 0 42
2019-08-06 11:00:00 23 8 Oeste 16 Oeste 0 937.3 0.1 53
2019-08-06 10:00:00 20.5 3 Sudoeste 8 Oeste 0 937.5 0 61
2019-08-06 09:00:00 17.7 2 Noroeste 4 Norte 0 937.3 -0.7 68
2019-08-06 08:00:00 14.7 5 Este 11 Sudeste 0 937.2 -0.8 78
2019-08-06 07:00:00 14.1 8 Sudeste 10 Este 0 937.5 -0.1 81
2019-08-06 06:00:00 15.7 3 Nordeste 7 Noroeste 0 938 0 78
2019-08-06 05:00:00 16.5 7 Oeste 8 Oeste 0 938 -0.3 74
2019-08-06 04:00:00 17.1 3 Noroeste 5 Oeste 0 937.6 -0.6 72
2019-08-06 03:00:00 17.9 3 Norte 8 Oeste 0 938 0 67
2019-08-06 02:00:00 19.3 0 Calma 8 Oeste 0 938.3 1 61
2019-08-06 01:00:00 20.4 8 Oeste 22 Oeste 0 938.2 1.7 57
2019-08-06 00:00:00 21.9 13 Noroeste 32 Noroeste 0 938 2.1 52
2019-08-05 23:00:00 24.4 18 Oeste 30 Noroeste 0 937.3 1.6 45
2019-08-05 22:00:00 26.8 13 Noroeste 30 Noroeste 0 936.5 0.7 36
2019-08-05 21:00:00 29.9 14 Noroeste 33 Noroeste 0 935.9 -0.1 26
2019-08-05 20:00:00 31.6 16 Noroeste 31 Noroeste 0 935.7 -0.6 24
2019-08-05 19:00:00 32.6 17 Noroeste 31 Noroeste 0 935.8 -1 20
2019-08-05 18:00:00 33 12 Oeste 28 Noroeste 0 936 -1.2 16
2019-08-05 17:00:00 32.5 9 Norte 30 Noroeste 0 936.3 -1.3 18
2019-08-05 16:00:00 32.7 5 Este 23 Oeste 0 936.8 -1.4 18
2019-08-05 15:00:00 31.3 8 Oeste 22 Sudoeste 0 937.2 -1.5 19
2019-08-05 14:00:00 28.7 8 Noroeste -- -- -- 937.6 -1.3 30
2019-08-05 13:00:00 27.2 6 Sudoeste 15 Oeste 0 938.2 -1.1 39
2019-08-05 12:00:00 24.3 7 Oeste 19 Oeste 0 938.7 -0.6 50
2019-08-05 11:00:00 21.4 6 Noroeste 16 Oeste 0 938.9 -0.3 59
2019-08-05 10:00:00 19.4 2 Sudoeste 6 Sur 0 939.3 0.3 67
2019-08-05 09:00:00 16.4 2 Sudoeste 6 Oeste 0 939.3 0.4 77
2019-08-05 08:00:00 13.7 4 Sudeste 5 Este 0 939.2 0.2 86
2019-08-05 07:00:00 13.6 4 Norte 5 Norte 0 939 -0.2 87
2019-08-05 06:00:00 14.1 4 Oeste 9 Noroeste 0 938.9 -0.3 85
2019-08-05 05:00:00 14.6 4 Noroeste 8 Noroeste 0 939 -0.4 84
2019-08-05 04:00:00 15.4 4 Noroeste 10 Noroeste 0 939.2 -0.2 81
2019-08-05 03:00:00 16.5 4 Noroeste 9 Noroeste 0 939.2 0.1 79
2019-08-05 02:00:00 17.5 5 Noroeste 7 Noroeste 0 939.4 0.4 76
2019-08-05 01:00:00 18.6 4 Noroeste 17 Noroeste 0 939.4 1.4 71
2019-08-05 00:00:00 19.8 11 Noroeste 30 Noroeste 0 939.1 1.8 68
2019-08-04 23:00:00 21.7 13 Noroeste 34 Oeste 0 939 2.4 61
2019-08-04 22:00:00 24.2 17 Oeste 35 Noroeste 0 938 1.7 51
2019-08-04 21:00:00 27.7 14 Noroeste 35 Oeste 0 937.3 1.1 38
2019-08-04 20:00:00 30.2 20 Noroeste 35 Oeste 0 936.6 0.3 29
2019-08-04 19:00:00 32 16 Noroeste 33 Noroeste 0 936.3 -0.3 23
2019-08-04 18:00:00 33.1 13 Oeste 34 Noroeste 0 936.2 -0.9 21
2019-08-04 17:00:00 33.4 9 Norte 26 Sudoeste 0 936.3 -1.4 20
2019-08-04 16:00:00 33.5 12 Sudoeste 39 Sudoeste 0 936.6 -1.7 20
2019-08-04 15:00:00 32 15 Sudoeste 27 Oeste 0 937.1 -1.4 24
2019-08-04 14:00:00 30 10 Oeste 23 Oeste 0 937.7 -1.1 28
2019-08-04 13:00:00 28.1 8 Sudoeste 16 Oeste 0 938.3 -0.8 34
2019-08-04 12:00:00 25.1 4 Noroeste 13 Oeste 0 938.5 -0.3 47
2019-08-04 11:00:00 22.9 4 Oeste 13 Oeste 0 938.8 0.3 55
2019-08-04 10:00:00 20.2 4 Noroeste 9 Oeste 0 939.1 0.8 63
2019-08-04 09:00:00 17.3 4 Este 7 Este 0 938.8 0.6 70
2019-08-04 08:00:00 14.7 3 Este 5 Este 0 938.5 0.1 83
2019-08-04 07:00:00 14.9 2 Este 9 Sudeste 0 938.3 -0.1 81
2019-08-04 06:00:00 16.1 2 Sur 4 Este 0 938.2 -0.3 79
2019-08-04 05:00:00 16.6 3 Este 7 Este 0 938.4 -0.1 77
2019-08-04 04:00:00 17.3 2 Sur 5 Sudeste 0 938.4 0 74
2019-08-04 03:00:00 18.2 3 Oeste 10 Noroeste 0 938.5 0.4 70
2019-08-04 02:00:00 19.2 4 Noroeste 10 Noroeste 0 938.5 0.8 66
2019-08-04 01:00:00 20.5 4 Oeste 15 Oeste 0 938.4 1.8 60
2019-08-04 00:00:00 21.9 8 Oeste 25 Noroeste 0 938.1 2.3 56
2019-08-03 23:00:00 23.7 14 Noroeste 32 Noroeste 0 937.7 2.3 47
2019-08-03 22:00:00 26 16 Oeste 42 Noroeste 0 936.6 1.1 42
2019-08-03 21:00:00 29.2 20 Noroeste 42 Noroeste 0 935.8 0 28
2019-08-03 20:00:00 32.1 19 Noroeste 37 Noroeste 0 935.4 -0.8 23
2019-08-03 19:00:00 33.2 13 Norte 26 Norte 0 935.5 -1.1 17
2019-08-03 18:00:00 34 13 Noroeste 29 Noroeste 0 935.8 -1.2 16
2019-08-03 17:00:00 33.7 12 Oeste 37 Noroeste 0 936.2 -1.3 18
2019-08-03 16:00:00 33.6 5 Nordeste 22 Oeste 0 936.6 -1.2 19
2019-08-03 15:00:00 32.6 10 Sur 20 Sudoeste 0 937 -0.9 21
2019-08-03 14:00:00 30.9 6 Noroeste 21 Norte 0 937.5 -0.5 25
2019-08-03 13:00:00 29 4 Sudoeste 15 Noroeste 0 937.8 -0.3 31
2019-08-03 12:00:00 26.5 5 Sur 13 Sudoeste 0 937.9 -0.1 36
2019-08-03 11:00:00 23.5 4 Oeste 13 Noroeste 0 938 0.2 49
2019-08-03 10:00:00 21 3 Sudoeste 10 Este 0 938.1 0.5 58
2019-08-03 09:00:00 17.8 6 Este 20 Este 0 938 0.6 67
2019-08-03 08:00:00 15 5 Este 8 Este 0 937.8 0.1 77
2019-08-03 07:00:00 14.2 9 Este 10 Este 0 937.6 -0.2 80
2019-08-03 06:00:00 15.8 3 Este 6 Este 0 937.4 -0.5 78
2019-08-03 05:00:00 16.5 4 Este 7 Nordeste 0 937.7 -0.6 75
2019-08-03 04:00:00 18 4 Norte 9 Noroeste 0 937.8 -0.3 70
2019-08-03 03:00:00 19.2 5 Oeste 7 Oeste 0 937.9 0.1 66
2019-08-03 02:00:00 20.3 0 Calma 13 Noroeste 0 938.3 0.9 63
2019-08-03 01:00:00 21.6 8 Noroeste 18 Noroeste 0 938.1 1.2 59
2019-08-03 00:00:00 23.5 14 Noroeste 28 Noroeste 0 937.8 1.1 53
2019-08-02 23:00:00 25.5 10 Noroeste 21 Oeste 0 937.4 0.9 39
2019-08-02 22:00:00 27.1 11 Norte 18 Noroeste 0 936.9 0.3 22
2019-08-02 21:00:00 30.8 10 Noroeste 27 Oeste 0 936.7 -0.2 18
2019-08-02 20:00:00 32.7 10 Noroeste 23 Norte 0 936.5 -0.9 16
2019-08-02 19:00:00 33.4 11 Noroeste 22 Norte 0 936.6 -1.2 16
2019-08-02 18:00:00 33.1 8 Norte 20 Nordeste 0 936.9 -1.3 13
2019-08-02 17:00:00 32.6 11 Este 23 Este 0 937.4 -1.2 13
2019-08-02 16:00:00 32.6 4 Nordeste 17 Nordeste 0 937.8 -1.2 14
2019-08-02 15:00:00 31.4 9 Sur 18 Sudoeste 0 938.2 -1.1 18
2019-08-02 14:00:00 29.4 8 Sudoeste 16 Sudoeste 0 938.6 -0.7 27
2019-08-02 13:00:00 27.3 4 Sur 17 Oeste 0 939 -0.4 34
2019-08-02 12:00:00 24 5 Oeste 14 Sudoeste 0 939.3 0.3 44
2019-08-02 11:00:00 21.4 3 Sudeste 10 Nordeste 0 939.3 0.7 51
2019-08-02 10:00:00 18.2 3 Nordeste 7 Nordeste 0 939.4 1 59
2019-08-02 09:00:00 15.7 3 Este 7 Sudeste 0 939 0.6 67
2019-08-02 08:00:00 12.8 4 Oeste 9 Noroeste 0 938.6 0 79
2019-08-02 07:00:00 12.5 0 Calma 6 Este 0 938.4 -0.1 75
2019-08-02 06:00:00 13.1 5 Este 8 Este 0 938.4 -0.4 74
2019-08-02 05:00:00 13.9 3 Norte 6 Noroeste 0 938.6 -0.3 72
2019-08-02 04:00:00 15 4 Noroeste 10 Oeste 0 938.5 -0.4 67
2019-08-02 03:00:00 16.1 6 Oeste 10 Oeste 0 938.8 0.1 63
2019-08-02 02:00:00 17 3 Noroeste 7 Oeste 0 938.9 0.9 59
2019-08-02 01:00:00 18.2 4 Noroeste 18 Noroeste 0 938.9 2.1 54
2019-08-02 00:00:00 19.5 7 Noroeste 28 Noroeste 0 938.7 2.7 50
2019-08-01 23:00:00 21.6 15 Noroeste 30 Noroeste 0 938 2.6 41
2019-08-01 22:00:00 24 15 Noroeste 33 Noroeste 0 936.8 1.7 34
2019-08-01 21:00:00 27.1 18 Oeste 40 Oeste 0 936 0.8 26
2019-08-01 20:00:00 29.8 18 Noroeste 36 Noroeste 0 935.4 0 21
2019-08-01 19:00:00 31.4 16 Noroeste 39 Oeste 0 935.1 -0.7 17
2019-08-01 18:00:00 32.2 13 Noroeste 30 Noroeste 0 935.2 -0.9 13
2019-08-01 17:00:00 31.6 10 Oeste 30 Oeste 0 935.4 -1.1 14
2019-08-01 16:00:00 31.7 12 Oeste 25 Oeste 0 935.8 -1 16
2019-08-01 15:00:00 30.2 8 Sur 22 Noroeste 0 936.1 -0.8 21
2019-08-01 14:00:00 28.8 7 Oeste 19 Sudoeste 0 936.5 -0.3 23
2019-08-01 13:00:00 27.5 8 Noroeste 21 Oeste 0 936.8 0 26
2019-08-01 12:00:00 24.8 6 Oeste 13 Oeste 0 936.9 0.3 36
2019-08-01 11:00:00 22.7 4 Sudoeste 10 Sudoeste 0 936.8 0.6 42
2019-08-01 10:00:00 19.9 2 Sur 8 Este 0 936.8 0.8 50
2019-08-01 09:00:00 15.7 5 Sudeste 8 Sudeste 0 936.6 1 59
2019-08-01 08:00:00 13.1 6 Sudeste 10 Este 0 936.2 0.6 67
2019-08-01 07:00:00 13.3 6 Este 10 Este 0 936 0.4 63
2019-08-01 06:00:00 13.5 6 Este 8 Este 0 935.6 -0.2 65
2019-08-01 05:00:00 15.8 0 Calma 15 Noroeste 0 935.6 -0.4 56
2019-08-01 04:00:00 16.5 7 Noroeste 15 Noroeste 0 935.6 -0.4 52
2019-08-01 03:00:00 17.3 8 Noroeste 14 Noroeste 0 935.8 -0.3 48
2019-08-01 02:00:00 18.5 8 Noroeste 14 Oeste 0 936 -0.1 45
2019-08-01 01:00:00 20 7 Noroeste 13 Noroeste 0 936 0.4 40
2019-08-01 00:00:00 20.9 8 Norte 12 Noroeste 0 936.1 0.7 39
2019-07-31 23:00:00 22.5 9 Norte 13 Norte 0 936.1 1.1 35
2019-07-31 22:00:00 24.3 9 Norte 25 Norte 0 935.6 0.7 30
2019-07-31 21:00:00 26 17 Norte 32 Norte 0 935.4 0.2 27
2019-07-31 20:00:00 26.7 21 Norte 35 Norte 0 935 -0.5 27
2019-07-31 19:00:00 27.4 19 Norte 38 Norte 0 934.9 -1.3 27
2019-07-31 18:00:00 28.3 15 Noroeste 31 Noroeste 0 935.2 -1.4 25
2019-07-31 17:00:00 29.6 9 Noroeste 22 Norte 0 935.5 -1.6 22
2019-07-31 16:00:00 29.4 7 Oeste 29 Norte 0 936.2 -1.6 23
2019-07-31 15:00:00 28.8 12 Noroeste 25 Norte 0 936.6 -1.7 24
2019-07-31 14:00:00 27.4 9 Nordeste 24 Nordeste 0 937.1 -1.4 27
2019-07-31 13:00:00 25.3 11 Nordeste 23 Nordeste 0 937.8 -0.8 31
2019-07-31 12:00:00 23.8 9 Norte 26 Norte 0 938.3 0 34
2019-07-31 11:00:00 20.9 11 Norte 21 Norte 0 938.5 0.2 41
2019-07-31 10:00:00 18.8 11 Nordeste 20 Norte 0 938.6 0.5 48
2019-07-31 09:00:00 16.5 12 Nordeste 23 Este 0 938.3 0.1 55
2019-07-31 08:00:00 14.8 10 Norte 33 Nordeste 0 938.3 -0.2 58
2019-07-31 07:00:00 14.8 16 Este 28 Nordeste 0 938.1 -0.6 57
2019-07-31 06:00:00 15.4 14 Nordeste 23 Nordeste 0 938.2 -0.8 53
2019-07-31 05:00:00 14.4 7 Norte 19 Norte 0 938.5 -0.6 51
2019-07-31 04:00:00 14.9 13 Norte 27 Norte 0 938.7 -0.5 50
2019-07-31 03:00:00 15.9 17 Norte 27 Norte 0 939 0 45
2019-07-31 02:00:00 16.8 19 Norte 30 Norte 0 939.1 0 40
2019-07-31 01:00:00 17.4 17 Norte 26 Norte 0 939.2 0.7 37
2019-07-31 00:00:00 18.5 15 Norte 24 Norte 0 939 0.8 33
2019-07-30 23:00:00 19.6 15 Norte 25 Norte 0 939.1 1 29
2019-07-30 22:00:00 21.1 10 Norte 23 Nordeste 0 938.5 0.2 23
2019-07-30 21:00:00 24.9 14 Norte 31 Norte 0 938.2 -0.5 16
2019-07-30 20:00:00 26.2 17 Norte 38 Nordeste 0 938.1 -1 16
2019-07-30 19:00:00 26.5 20 Norte 38 Norte 0 938.3 -1.3 16
2019-07-30 18:00:00 26.4 15 Norte 43 Norte 0 938.7 -1.3 15
2019-07-30 17:00:00 27.1 13 Nordeste 44 Norte 0 939.1 -1.6 17
2019-07-30 16:00:00 26.6 14 Norte 36 Nordeste 0 939.6 -1.4 17
2019-07-30 15:00:00 25 19 Nordeste 41 Norte 0 940 -1.4 20
2019-07-30 14:00:00 23.1 18 Nordeste 42 Nordeste 0 940.7 -0.8 25
2019-07-30 13:00:00 21.2 14 Norte 35 Norte 0 941 -0.7 30
2019-07-30 12:00:00 20 17 Norte 33 Nordeste 0 941.4 -0.2 36
2019-07-30 11:00:00 17.8 15 Nordeste 28 Norte 0 941.5 0.2 44
2019-07-30 10:00:00 15 15 Norte 27 Norte 0 941.7 0.6 58
2019-07-30 09:00:00 12.8 9 Norte 17 Norte 0 941.6 0.5 71
2019-07-30 08:00:00 9.7 8 Norte 12 Nordeste 0 941.3 0.2 82
2019-07-30 07:00:00 9.6 10 Norte 12 Norte 0 941.1 0.1 81
2019-07-30 06:00:00 11 5 Norte 12 Nordeste 0 941.1 0.4 76
2019-07-30 05:00:00 11.3 7 Norte 18 Norte 0 941.1 0.4 71
2019-07-30 04:00:00 12.2 7 Norte 26 Norte 0 941 0.7 67
2019-07-30 03:00:00 13.1 11 Noroeste 27 Noroeste 0 940.7 0.8 62
2019-07-30 02:00:00 14 9 Noroeste 24 Noroeste 0 940.7 1.2 57
2019-07-30 01:00:00 14.5 12 Noroeste 32 Norte 0 940.3 1.8 59
2019-07-30 00:00:00 15.8 13 Noroeste 27 Noroeste 0 939.9 1.9 54
2019-07-29 23:00:00 17.1 12 Noroeste 33 Noroeste 0 939.5 2.1 50
2019-07-29 22:00:00 18.9 15 Noroeste 35 Noroeste 0 938.5 1.5 40
2019-07-29 21:00:00 21.6 15 Noroeste 36 Noroeste 0 938 1 31
2019-07-29 20:00:00 23.1 18 Noroeste 41 Noroeste 0 937.4 0.5 29
2019-07-29 19:00:00 24.8 19 Noroeste 42 Noroeste 0 937 0 22
2019-07-29 18:00:00 25.6 19 Noroeste 37 Oeste 0 937 0 22
2019-07-29 17:00:00 25.5 16 Noroeste 38 Noroeste 0 936.9 -0.1 22
2019-07-29 16:00:00 25.1 18 Noroeste 39 Noroeste 0 937 -0.2 26
2019-07-29 15:00:00 24.5 17 Noroeste 35 Noroeste 0 937 -0.3 31
2019-07-29 14:00:00 23.6 13 Noroeste 29 Oeste 0 937 -0.3 36
2019-07-29 13:00:00 22.1 12 Oeste 31 Norte 0 937.2 0.3 45
2019-07-29 12:00:00 19.6 6 Oeste 18 Noroeste 0 937.3 0.9 59
2019-07-29 11:00:00 17.8 7 Oeste 16 Norte 0 937.3 1.2 61
2019-07-29 10:00:00 15.7 5 Sudeste 11 Este 0 936.9 1.2 55
2019-07-29 09:00:00 13.9 8 Este 10 Este 0 936.4 0.8 61
2019-07-29 08:00:00 11.6 6 Este 9 Este 0 936.1 0.3 74
2019-07-29 07:00:00 10.6 8 Este 10 Este 0 935.7 0.1 78
2019-07-29 06:00:00 11.5 5 Sudeste 8 Este 0 935.6 0 74
2019-07-29 05:00:00 13.2 4 Oeste 9 Sudoeste 0 935.8 0.3 69
2019-07-29 04:00:00 14.3 0 Calma 20 Oeste 0 935.6 0.4 64
2019-07-29 03:00:00 15.4 12 Oeste 20 Oeste 0 935.6 0.7 61
2019-07-29 02:00:00 16.3 9 Noroeste 35 Noroeste 0 935.5 1 56
2019-07-29 01:00:00 17.8 11 Noroeste 23 Noroeste 0 935.2 1.7 50
2019-07-29 00:00:00 19.5 11 Noroeste 30 Noroeste 0 934.9 1.9 49
2019-07-28 23:00:00 21.5 19 Noroeste 32 Noroeste 0 934.5 1.7 47
2019-07-28 22:00:00 24.4 13 Oeste 26 Noroeste 0 933.5 0.7 33
2019-07-28 21:00:00 27.9 13 Oeste 26 Oeste 0 933 0.1 19
2019-07-28 20:00:00 29 13 Noroeste 31 Noroeste 0 932.8 -0.6 18
2019-07-28 19:00:00 29.3 12 Noroeste 35 Norte 0 932.8 -1.1 16
2019-07-28 18:00:00 29.7 13 Noroeste 31 Oeste 0 932.9 -1.3 15
2019-07-28 17:00:00 29.5 13 Noroeste 29 Noroeste 0 933.4 -1.3 15
2019-07-28 16:00:00 28.7 11 Noroeste 28 Oeste 0 933.9 -1.4 17
2019-07-28 15:00:00 28 11 Oeste 21 Oeste 0 934.2 -1.3 23
2019-07-28 14:00:00 26.2 5 Sur 20 Sudoeste 0 934.7 -0.8 29
2019-07-28 13:00:00 25.5 6 Sur 16 Sudoeste 0 935.3 -0.5 31
2019-07-28 12:00:00 23.8 5 Sur 13 Sudoeste 0 935.5 0 38
2019-07-28 11:00:00 21.1 3 Oeste 12 Sudeste 0 935.5 0.2 46
2019-07-28 10:00:00 18.6 5 Este 13 Este 0 935.8 0.8 54
2019-07-28 09:00:00 16.7 4 Este 9 Sudeste 0 935.5 0.5 61
2019-07-28 08:00:00 14.4 3 Sudeste 10 Este 0 935.3 0.1 70
2019-07-28 07:00:00 14.3 9 Este 15 Nordeste 0 935 -0.5 69
2019-07-28 06:00:00 14.3 4 Sudeste 20 Nordeste 0 935 -0.6 72
2019-07-28 05:00:00 15.2 12 Nordeste 19 Nordeste 0 935.2 -0.2 71
2019-07-28 04:00:00 14.8 10 Norte 16 Norte 0 935.5 0.1 74
2019-07-28 03:00:00 15.3 10 Norte 17 Norte 0 935.6 0.3 72
2019-07-28 02:00:00 16.1 11 Norte 19 Norte 0 935.4 0.6 68
2019-07-28 01:00:00 17.5 11 Noroeste 18 Noroeste 0 935.4 1.5 63
2019-07-28 00:00:00 18.8 10 Noroeste 23 Norte 0 935.3 2 58
2019-07-27 23:00:00 20.4 9 Noroeste 24 Oeste 0 934.8 1.9 52
2019-07-26 12:00:00 20.2 14 Noroeste 33 Norte 0 938.2 -0.1 46
2019-07-26 11:00:00 18.7 14 Noroeste 31 Oeste 0 938.3 0.1 52
2019-07-26 10:00:00 16.7 12 Noroeste 21 Noroeste 0 938.6 0.4 61
2019-07-26 09:00:00 15.1 4 Oeste 10 Noroeste 0 938.3 0.4 70
2019-07-26 08:00:00 13.2 4 Oeste 12 Oeste 0 938.2 0.2 79
2019-07-26 07:00:00 13.2 7 Noroeste 21 Noroeste 0 938.2 0.2 78
2019-07-26 06:00:00 14.7 10 Noroeste 28 Noroeste 0 937.9 -0.5 72
2019-07-26 05:00:00 15.7 14 Noroeste 31 Noroeste 0 938 -0.3 69
2019-07-26 04:00:00 16.8 14 Noroeste 27 Noroeste 0 938 -0.1 68
2019-07-26 03:00:00 16.8 11 Noroeste 32 Noroeste 0 938.4 0.4 77
2019-07-26 02:00:00 18 13 Noroeste 27 Norte 0 938.3 0.6 69
2019-07-26 01:00:00 18.7 12 Noroeste 28 Noroeste 0 938.1 0.9 76
2019-07-26 00:00:00 19.1 14 Noroeste 31 Noroeste 0 938 1.1 76